KSTK/STK METAR and TAF weather

Enter ICAO airport designator
Station Type Date Time Source
KSTK METAR 2019/08/24 17:40 UTC NOAA

KSTK 241740Z AUTO 19008KT 142V222 10SM SCT033 SCT043 23/15 A2999 RMK AO2


Station Type Date Time Source
KSTK Decoded METAR 2019/08/24 17:40 UTC NOAA

Station name not available
Aug 24, 2019 - 01:40 PM EDT / 2019.08.24 1740 UTC
Wind: from the S (190 degrees) at 9 MPH (8 KT) (direction variable):0
Visibility: 10 mile(s):0
Sky conditions: partly cloudy
Temperature: 73 F (23 C)
Dew Point: 59 F (15 C)
Relative Humidity: 60%
Pressure (altimeter): 29.99 in. Hg (1015 hPa)
ob: KSTK 241740Z AUTO 19008KT 142V222 10SM SCT033 SCT043 23/15 A2999 RMK AO2
cycle: 17

Station Type Date Time Source
KSTK TAF UTC NOAA

Error!

Example: see airport list